createdAt,value
2023-11-24T00:00:40.271Z,8.30
2023-11-24T00:01:42.382Z,8.30
2023-11-24T00:02:44.208Z,8.30
2023-11-24T00:03:45.944Z,8.30
2023-11-24T00:04:47.714Z,8.30
2023-11-24T00:05:49.413Z,8.30
2023-11-24T00:06:52.462Z,8.20
2023-11-24T00:07:54.145Z,8.20
2023-11-24T00:08:55.794Z,8.20
2023-11-24T00:09:58.132Z,8.20
2023-11-24T00:10:59.824Z,8.20
2023-11-24T00:12:02.314Z,8.20
2023-11-24T00:13:04.001Z,8.20
2023-11-24T00:14:05.892Z,8.20
2023-11-24T00:15:07.798Z,8.20
2023-11-24T00:16:11.021Z,8.20
2023-11-24T00:17:12.790Z,8.20
2023-11-24T00:18:14.852Z,8.20
2023-11-24T00:19:16.931Z,8.20
2023-11-24T00:20:18.745Z,8.20
2023-11-24T00:21:20.495Z,8.20
2023-11-24T00:22:22.254Z,8.20
2023-11-24T00:23:25.234Z,8.20
2023-11-24T00:24:26.951Z,8.20
2023-11-24T00:25:29.255Z,8.20
2023-11-24T00:26:34.286Z,8.10
2023-11-24T00:27:36.679Z,8.10
2023-11-24T00:28:40.293Z,8.10
2023-11-24T00:29:42.256Z,8.10
2023-11-24T00:30:44.007Z,8.20
2023-11-24T00:31:46.506Z,8.10
2023-11-24T00:32:48.391Z,8.10
2023-11-24T00:33:50.298Z,8.10
2023-11-24T00:34:52.109Z,8.10
2023-11-24T00:35:53.893Z,8.10
2023-11-24T00:36:55.593Z,8.10
2023-11-24T00:37:57.337Z,8.10
2023-11-24T00:38:59.095Z,8.10
2023-11-24T00:40:00.865Z,8.10
2023-11-24T00:41:02.619Z,8.00
2023-11-24T00:42:04.537Z,8.00
2023-11-24T00:43:07.125Z,8.00
2023-11-24T00:44:08.871Z,8.00
2023-11-24T00:45:10.910Z,8.00
2023-11-24T00:46:13.210Z,8.00
2023-11-24T00:47:14.892Z,7.90
2023-11-24T00:48:16.794Z,7.90
2023-11-24T00:49:18.927Z,7.90
2023-11-24T00:50:20.586Z,7.80
2023-11-24T00:51:22.356Z,7.80
2023-11-24T00:52:24.036Z,7.80
2023-11-24T00:53:25.719Z,7.80
2023-11-24T00:54:27.424Z,7.80
2023-11-24T00:55:31.390Z,7.80
2023-11-24T00:56:33.244Z,7.80
2023-11-24T00:57:34.898Z,7.90
2023-11-24T00:58:36.923Z,7.80
2023-11-24T00:59:38.608Z,7.80
2023-11-24T01:00:40.390Z,7.80
2023-11-24T01:01:42.162Z,7.80
2023-11-24T01:02:44.802Z,7.80
2023-11-24T01:03:46.659Z,7.80
2023-11-24T01:04:49.228Z,7.80
2023-11-24T01:05:51.105Z,7.80
2023-11-24T01:06:52.796Z,7.80
2023-11-24T01:07:55.706Z,7.80
2023-11-24T01:08:57.473Z,7.70
2023-11-24T01:09:59.501Z,7.70
2023-11-24T01:11:03.143Z,7.70
2023-11-24T01:12:04.864Z,7.70
2023-11-24T01:13:06.688Z,7.70
2023-11-24T01:14:08.450Z,7.70
2023-11-24T01:15:10.585Z,7.70
2023-11-24T01:16:12.318Z,7.70
2023-11-24T01:17:14.346Z,7.60
2023-11-24T01:18:16.193Z,7.60
2023-11-24T01:19:18.201Z,7.60
2023-11-24T01:20:19.862Z,7.60
2023-11-24T01:21:21.720Z,7.60
2023-11-24T01:22:25.936Z,7.50
2023-11-24T01:23:28.279Z,7.50
2023-11-24T01:24:30.277Z,7.50
2023-11-24T01:25:35.031Z,7.50
2023-11-24T01:26:38.612Z,7.50
2023-11-24T01:27:40.453Z,7.50
2023-11-24T01:28:42.654Z,7.50
2023-11-24T01:29:44.363Z,7.50
2023-11-24T01:30:46.329Z,7.50
2023-11-24T01:31:48.069Z,7.50
2023-11-24T01:32:49.799Z,7.50
2023-11-24T01:33:51.635Z,7.50
2023-11-24T01:34:53.419Z,7.50
2023-11-24T01:35:57.044Z,7.40
2023-11-24T01:36:58.817Z,7.40
2023-11-24T01:38:00.822Z,7.40
2023-11-24T01:39:03.993Z,7.50
2023-11-24T01:40:06.669Z,7.50
2023-11-24T01:41:09.690Z,7.50
2023-11-24T01:42:11.346Z,7.50
2023-11-24T01:43:12.989Z,7.50
2023-11-24T01:44:14.670Z,7.50
2023-11-24T01:45:16.454Z,7.40
2023-11-24T01:46:18.234Z,7.50
2023-11-24T01:47:19.916Z,7.40
2023-11-24T01:48:21.854Z,7.50
2023-11-24T01:49:25.397Z,7.50
2023-11-24T01:50:27.804Z,7.50
2023-11-24T01:51:29.801Z,7.50
2023-11-24T01:52:35.458Z,7.60
2023-11-24T01:53:37.422Z,7.60
2023-11-24T01:54:39.656Z,7.60
2023-11-24T01:55:41.966Z,7.60
2023-11-24T01:56:44.024Z,7.60
2023-11-24T01:57:48.341Z,7.50
2023-11-24T01:58:51.783Z,7.50
2023-11-24T01:59:54.228Z,7.50
2023-11-24T02:00:56.071Z,7.50
2023-11-24T02:01:57.814Z,7.50
2023-11-24T02:02:59.617Z,7.50
2023-11-24T02:04:02.849Z,7.50
2023-11-24T02:05:04.970Z,7.50
2023-11-24T02:06:08.142Z,7.40
2023-11-24T02:07:10.298Z,7.40
2023-11-24T02:08:12.264Z,7.40
2023-11-24T02:09:14.039Z,7.40
2023-11-24T02:10:17.137Z,7.40
2023-11-24T02:11:18.866Z,7.30
2023-11-24T02:12:20.506Z,7.30
2023-11-24T02:13:28.636Z,7.30
2023-11-24T02:14:30.367Z,7.30
2023-11-24T02:15:32.029Z,7.30
2023-11-24T02:16:34.944Z,7.20
2023-11-24T02:17:37.607Z,7.20
2023-11-24T02:18:39.415Z,7.20
2023-11-24T02:19:41.169Z,7.10
2023-11-24T02:20:42.894Z,7.00
2023-11-24T02:21:46.312Z,7.00
2023-11-24T02:22:47.954Z,7.00
2023-11-24T02:23:51.553Z,7.00
2023-11-24T02:24:53.465Z,7.00
2023-11-24T02:31:29.102Z,6.90
2023-11-24T02:32:30.793Z,6.80
2023-11-24T02:33:34.647Z,6.70
2023-11-24T02:34:36.450Z,6.80
2023-11-24T02:35:40.656Z,6.70
2023-11-24T02:36:43.823Z,6.70
2023-11-24T02:37:45.519Z,6.70
2023-11-24T02:38:50.525Z,6.60
2023-11-24T02:39:52.976Z,6.60
2023-11-24T02:40:54.614Z,6.60
2023-11-24T02:41:56.280Z,6.60
2023-11-24T02:42:58.010Z,6.60
2023-11-24T02:43:59.715Z,6.60
2023-11-24T02:45:01.383Z,6.60
2023-11-24T02:46:03.082Z,6.60
2023-11-24T02:47:04.831Z,6.60
2023-11-24T02:48:06.858Z,6.60
2023-11-24T02:49:08.725Z,6.60
2023-11-24T02:50:10.580Z,6.60
2023-11-24T02:51:12.385Z,6.60
2023-11-24T02:52:15.272Z,6.60
2023-11-24T02:53:16.884Z,6.60
2023-11-24T02:54:18.504Z,6.60
2023-11-24T02:55:20.129Z,6.60
2023-11-24T02:56:21.865Z,6.60
2023-11-24T02:57:24.336Z,6.60
2023-11-24T02:58:26.636Z,6.60
2023-11-24T02:59:28.276Z,6.60
2023-11-24T03:00:30.063Z,6.60
2023-11-24T03:01:31.829Z,6.60
2023-11-24T03:02:33.643Z,6.60
2023-11-24T03:03:35.664Z,6.60
2023-11-24T03:04:38.815Z,6.60
2023-11-24T03:05:40.553Z,6.60
2023-11-24T03:06:43.521Z,6.60
2023-11-24T03:07:45.276Z,6.60
2023-11-24T03:08:46.907Z,6.60
2023-11-24T03:09:48.645Z,6.60
2023-11-24T03:10:50.599Z,6.70
2023-11-24T03:11:55.375Z,6.70
2023-11-24T03:12:57.328Z,6.70
2023-11-24T03:13:59.358Z,6.70
2023-11-24T03:15:01.026Z,6.60
2023-11-24T03:16:09.240Z,6.60
2023-11-24T03:17:14.088Z,6.60
2023-11-24T03:18:18.052Z,6.60
2023-11-24T03:19:20.609Z,6.60
2023-11-24T03:20:25.248Z,6.60
2023-11-24T03:21:26.990Z,6.60
2023-11-24T03:22:28.610Z,6.60
2023-11-24T03:23:30.339Z,6.70
2023-11-24T03:24:32.026Z,6.70
2023-11-24T03:25:35.524Z,6.70
2023-11-24T03:26:37.634Z,6.70
2023-11-24T03:27:39.419Z,6.70
2023-11-24T03:28:41.372Z,6.70
2023-11-24T03:29:43.078Z,6.70
2023-11-24T03:30:44.873Z,6.70
2023-11-24T03:31:47.098Z,6.70
2023-11-24T03:32:48.776Z,6.70
2023-11-24T03:33:50.819Z,6.70
2023-11-24T03:34:52.502Z,6.70
2023-11-24T03:35:54.185Z,6.70
2023-11-24T03:36:55.871Z,6.70
2023-11-24T03:37:57.621Z,6.70
2023-11-24T03:38:59.318Z,6.70
2023-11-24T03:40:01.019Z,6.70
2023-11-24T03:41:03.018Z,6.70
2023-11-24T03:42:04.821Z,6.60
2023-11-24T03:43:06.590Z,6.60
2023-11-24T03:44:08.813Z,6.60
2023-11-24T03:45:11.281Z,6.60
2023-11-24T03:46:13.263Z,6.60
2023-11-24T03:47:14.950Z,6.60
2023-11-24T03:48:22.282Z,6.60
2023-11-24T03:49:24.150Z,6.60
2023-11-24T03:50:25.817Z,6.60
2023-11-24T03:51:27.599Z,6.60
2023-11-24T03:52:29.290Z,6.60
2023-11-24T03:53:30.984Z,6.60
2023-11-24T03:54:32.684Z,6.60
2023-11-24T03:55:34.333Z,6.60
2023-11-24T03:56:36.001Z,6.50
2023-11-24T03:57:37.706Z,6.50
2023-11-24T03:58:39.362Z,6.50
2023-11-24T03:59:41.036Z,6.50
2023-11-24T04:00:43.637Z,6.50
2023-11-24T04:01:45.491Z,6.60
2023-11-24T04:02:48.811Z,6.60
2023-11-24T04:03:55.447Z,6.50
2023-11-24T04:04:57.424Z,6.50
2023-11-24T04:05:59.054Z,6.50
2023-11-24T04:07:00.890Z,6.50
2023-11-24T04:08:02.587Z,6.50
2023-11-24T04:09:05.790Z,6.50
2023-11-24T04:10:08.532Z,6.50
2023-11-24T04:11:11.471Z,6.50
2023-11-24T04:12:13.234Z,6.60
2023-11-24T04:13:15.218Z,6.60
2023-11-24T04:14:17.016Z,6.50
2023-11-24T04:15:18.893Z,6.50
2023-11-24T04:16:20.650Z,6.50
2023-11-24T04:17:22.433Z,6.50
2023-11-24T04:18:25.263Z,6.50
2023-11-24T04:19:27.041Z,6.50
2023-11-24T04:20:28.846Z,6.50
2023-11-24T04:21:30.937Z,6.50
2023-11-24T04:22:32.667Z,6.50
2023-11-24T04:23:34.293Z,6.50
2023-11-24T04:24:35.972Z,6.50
2023-11-24T04:25:37.686Z,6.50
2023-11-24T04:26:39.736Z,6.50
2023-11-24T04:27:41.484Z,6.60
2023-11-24T04:28:43.185Z,6.60
2023-11-24T04:29:44.806Z,6.60
2023-11-24T04:30:46.570Z,6.60
2023-11-24T04:31:48.529Z,6.50
2023-11-24T04:32:50.285Z,6.50
2023-11-24T04:33:52.069Z,6.50
2023-11-24T04:34:53.816Z,6.50
2023-11-24T04:35:56.602Z,6.50
2023-11-24T04:36:58.394Z,6.40
2023-11-24T04:38:00.328Z,6.50
2023-11-24T04:39:02.002Z,6.40
2023-11-24T04:40:04.098Z,6.40
2023-11-24T04:41:07.946Z,6.40
2023-11-24T04:42:09.593Z,6.40
2023-11-24T04:43:11.295Z,6.40
2023-11-24T04:44:14.360Z,6.40
2023-11-24T04:45:16.063Z,6.40
2023-11-24T04:46:17.805Z,6.30
2023-11-24T04:47:19.596Z,6.30
2023-11-24T04:48:21.297Z,6.40
2023-11-24T04:49:23.362Z,6.30
2023-11-24T04:50:25.200Z,6.30
2023-11-24T04:51:27.086Z,6.30
2023-11-24T04:52:28.758Z,6.30
2023-11-24T04:53:30.500Z,6.30
2023-11-24T04:54:32.168Z,6.30
2023-11-24T04:55:34.175Z,6.30
2023-11-24T04:56:36.016Z,6.30
2023-11-24T04:57:37.801Z,6.30
2023-11-24T04:58:39.763Z,6.30
2023-11-24T04:59:42.127Z,6.30
2023-11-24T05:00:43.926Z,6.30
2023-11-24T05:01:47.423Z,6.30
2023-11-24T05:02:50.609Z,6.30
2023-11-24T05:03:53.735Z,6.30
2023-11-24T05:04:56.642Z,6.30
2023-11-24T05:05:58.276Z,6.30
2023-11-24T05:06:59.964Z,6.20
2023-11-24T05:08:01.719Z,6.20
2023-11-24T05:09:03.847Z,6.20
2023-11-24T05:10:07.200Z,6.20
2023-11-24T05:11:08.944Z,6.20
2023-11-24T05:12:11.332Z,6.20
2023-11-24T05:13:12.990Z,6.20
2023-11-24T05:14:14.704Z,6.20
2023-11-24T05:15:16.582Z,6.20
2023-11-24T05:16:18.349Z,6.20
2023-11-24T05:17:20.925Z,6.20
2023-11-24T05:18:22.600Z,6.20
2023-11-24T05:19:24.301Z,6.20
2023-11-24T05:20:26.360Z,6.20
2023-11-24T05:21:28.103Z,6.30
2023-11-24T05:22:29.978Z,6.30
2023-11-24T05:23:31.692Z,6.30
2023-11-24T05:24:33.534Z,6.30
2023-11-24T05:25:35.364Z,6.30
2023-11-24T05:26:37.047Z,6.30
2023-11-24T05:27:38.843Z,6.30
2023-11-24T05:28:40.510Z,6.30
2023-11-24T05:29:42.192Z,6.30
2023-11-24T05:30:43.875Z,6.30
2023-11-24T05:31:45.665Z,6.20
2023-11-24T05:32:48.044Z,6.20
2023-11-24T05:33:50.001Z,6.20
2023-11-24T05:34:55.190Z,6.20
2023-11-24T05:35:58.587Z,6.10
2023-11-24T05:37:08.707Z,6.10
2023-11-24T05:38:10.586Z,6.10
2023-11-24T05:39:16.128Z,6.10
2023-11-24T05:40:17.838Z,6.20
2023-11-24T05:41:20.020Z,6.20
2023-11-24T05:42:21.654Z,6.10
2023-11-24T05:43:23.389Z,6.10
2023-11-24T05:44:25.329Z,6.10
2023-11-24T05:45:27.015Z,6.10
2023-11-24T05:46:29.472Z,6.10
2023-11-24T05:47:31.684Z,6.20
2023-11-24T05:48:34.095Z,6.20
2023-11-24T05:49:35.900Z,6.20
2023-11-24T05:50:37.635Z,6.20
2023-11-24T05:51:39.774Z,6.20
2023-11-24T05:52:42.012Z,6.20
2023-11-24T05:53:43.733Z,6.20
2023-11-24T05:54:45.438Z,6.20
2023-11-24T05:55:47.113Z,6.20
2023-11-24T05:56:48.764Z,6.20
2023-11-24T05:57:51.083Z,6.20
2023-11-24T05:58:52.872Z,6.20
2023-11-24T05:59:55.311Z,6.20
2023-11-24T06:00:57.327Z,6.20
2023-11-24T06:01:59.075Z,6.20
2023-11-24T06:03:00.754Z,6.20
2023-11-24T06:04:03.803Z,6.20
2023-11-24T06:05:06.298Z,6.20
2023-11-24T06:06:08.426Z,6.20
2023-11-24T06:07:10.527Z,6.20
2023-11-24T06:08:12.161Z,6.10
2023-11-24T06:09:13.874Z,6.10
2023-11-24T06:10:15.646Z,6.10
2023-11-24T06:11:19.124Z,6.10
2023-11-24T06:12:21.057Z,6.10
2023-11-24T06:13:23.236Z,6.10
2023-11-24T06:14:25.105Z,6.10
2023-11-24T06:15:30.121Z,6.00
2023-11-24T06:16:31.830Z,6.00
2023-11-24T06:17:33.580Z,6.00
2023-11-24T06:18:35.249Z,6.00
2023-11-24T06:19:37.043Z,6.00
2023-11-24T06:20:38.738Z,6.00
2023-11-24T06:21:41.475Z,5.90
2023-11-24T06:22:46.160Z,5.80
2023-11-24T06:23:51.973Z,5.80
2023-11-24T06:24:54.816Z,5.70
2023-11-24T06:25:56.698Z,5.60
2023-11-24T06:26:58.444Z,5.60
2023-11-24T06:28:00.196Z,5.60
2023-11-24T06:29:02.030Z,5.60
2023-11-24T06:30:06.691Z,5.60
2023-11-24T06:31:11.492Z,5.60
2023-11-24T06:32:14.848Z,5.50
2023-11-24T06:33:16.475Z,5.50
2023-11-24T06:34:18.541Z,5.40
2023-11-24T06:35:20.387Z,5.40
2023-11-24T06:36:23.194Z,5.30
2023-11-24T06:37:25.090Z,5.30
2023-11-24T06:38:26.956Z,5.30
2023-11-24T06:39:28.691Z,5.40
2023-11-24T06:40:30.376Z,5.40
2023-11-24T06:41:32.036Z,5.40
2023-11-24T06:42:33.725Z,5.50
2023-11-24T06:43:35.903Z,5.50
2023-11-24T06:44:37.550Z,5.60
2023-11-24T06:45:40.097Z,5.60
2023-11-24T06:46:41.799Z,5.70
2023-11-24T06:47:43.618Z,5.70
2023-11-24T06:48:45.379Z,5.80
2023-11-24T06:49:48.082Z,5.80
2023-11-24T06:50:49.763Z,5.80
2023-11-24T06:51:53.572Z,5.80
2023-11-24T06:52:55.270Z,5.80
2023-11-24T06:53:56.913Z,5.80
2023-11-24T06:54:58.661Z,5.80
2023-11-24T06:56:00.581Z,5.80
2023-11-24T06:57:02.236Z,5.80
2023-11-24T06:58:05.700Z,5.80
2023-11-24T06:59:08.518Z,5.80
2023-11-24T07:00:17.469Z,5.80
2023-11-24T07:01:28.517Z,5.80
2023-11-24T07:02:30.432Z,5.70
2023-11-24T07:03:33.103Z,5.70
2023-11-24T07:04:35.266Z,5.70
2023-11-24T07:05:36.937Z,5.80
2023-11-24T07:06:38.932Z,5.70
2023-11-24T07:07:41.073Z,5.80
2023-11-24T07:08:42.708Z,5.80
2023-11-24T07:09:44.789Z,5.80
2023-11-24T07:10:46.535Z,5.70
2023-11-24T07:11:51.766Z,5.70
2023-11-24T07:12:53.913Z,5.70
2023-11-24T07:13:55.755Z,5.70
2023-11-24T07:14:57.461Z,5.80
2023-11-24T07:15:59.207Z,5.80
2023-11-24T07:17:01.004Z,5.80
2023-11-24T07:18:02.761Z,5.80
2023-11-24T07:19:04.558Z,5.80
2023-11-24T07:20:08.111Z,5.80
2023-11-24T07:21:09.799Z,5.80
2023-11-24T07:22:12.847Z,5.80
2023-11-24T07:23:14.584Z,5.80
2023-11-24T07:24:16.307Z,5.80
2023-11-24T07:25:18.114Z,5.80
2023-11-24T07:26:20.407Z,5.80
2023-11-24T07:27:22.138Z,5.80
2023-11-24T07:28:23.790Z,5.80
2023-11-24T07:29:25.437Z,5.90
2023-11-24T07:30:27.395Z,5.80
2023-11-24T07:31:29.491Z,5.80
2023-11-24T07:32:31.544Z,5.80
2023-11-24T07:33:34.223Z,5.80
2023-11-24T07:34:36.017Z,5.80
2023-11-24T07:35:37.759Z,5.70
2023-11-24T07:36:39.436Z,5.80
2023-11-24T07:37:41.272Z,5.80
2023-11-24T07:38:43.357Z,5.80
2023-11-24T07:39:46.469Z,5.80
2023-11-24T07:40:48.875Z,5.80
2023-11-24T07:41:51.028Z,5.80
2023-11-24T07:42:52.843Z,5.80
2023-11-24T07:43:55.360Z,5.70
2023-11-24T07:44:57.049Z,5.80
2023-11-24T07:45:59.325Z,5.80
2023-11-24T07:47:02.124Z,5.80
2023-11-24T07:48:04.076Z,5.80
2023-11-24T07:49:05.802Z,5.90
2023-11-24T07:50:08.359Z,5.90
2023-11-24T07:51:10.017Z,5.90
2023-11-24T07:52:12.734Z,6.00
2023-11-24T07:53:15.462Z,6.00
2023-11-24T07:54:17.687Z,6.00
2023-11-24T07:55:20.426Z,6.00
2023-11-24T07:56:22.305Z,6.00
2023-11-24T07:57:26.180Z,6.00
2023-11-24T07:58:30.122Z,6.00
2023-11-24T07:59:31.809Z,6.10
2023-11-24T08:00:33.671Z,6.10
2023-11-24T08:01:35.429Z,6.00
2023-11-24T08:02:38.241Z,6.10
2023-11-24T08:03:40.464Z,6.10
2023-11-24T08:04:42.256Z,6.10
2023-11-24T08:05:44.257Z,6.10
2023-11-24T08:06:46.577Z,6.10
2023-11-24T08:07:48.284Z,6.10
2023-11-24T08:08:49.975Z,6.10
2023-11-24T08:09:51.745Z,6.10
2023-11-24T08:10:53.427Z,6.10
2023-11-24T08:11:55.073Z,6.10
2023-11-24T08:12:56.837Z,6.10
2023-11-24T08:13:59.073Z,6.10
2023-11-24T08:15:01.365Z,6.10
2023-11-24T08:16:03.538Z,6.20
2023-11-24T08:17:05.447Z,6.20
2023-11-24T08:18:07.289Z,6.20
2023-11-24T08:19:09.481Z,6.20
2023-11-24T08:20:14.659Z,6.20
2023-11-24T08:21:16.630Z,6.20
2023-11-24T08:22:18.495Z,6.20
2023-11-24T08:23:20.241Z,6.20
2023-11-24T08:24:22.443Z,6.20
2023-11-24T08:25:24.831Z,6.20
2023-11-24T08:26:26.547Z,6.20
2023-11-24T08:27:28.230Z,6.20
2023-11-24T08:28:30.244Z,6.20
2023-11-24T08:29:32.267Z,6.20
2023-11-24T08:30:34.005Z,6.20
2023-11-24T08:31:36.083Z,6.20
2023-11-24T08:32:41.026Z,6.20
2023-11-24T08:33:44.960Z,6.20
2023-11-24T08:34:46.822Z,6.20
2023-11-24T08:35:48.689Z,6.20
2023-11-24T08:36:50.440Z,6.10
2023-11-24T08:37:52.905Z,6.10
2023-11-24T08:38:54.593Z,6.10
2023-11-24T08:39:56.367Z,6.20
2023-11-24T08:40:58.054Z,6.20
2023-11-24T08:41:59.726Z,6.10
2023-11-24T08:43:02.095Z,6.10
2023-11-24T08:44:05.853Z,6.10
2023-11-24T08:45:08.229Z,6.10
2023-11-24T08:46:10.551Z,6.10
2023-11-24T08:47:13.575Z,6.00
2023-11-24T08:48:15.358Z,6.00
2023-11-24T08:49:17.093Z,6.00
2023-11-24T08:50:19.479Z,6.00
2023-11-24T08:51:21.229Z,6.00
2023-11-24T08:52:22.951Z,6.00
2023-11-24T08:53:26.641Z,6.00
2023-11-24T08:54:28.311Z,6.00
2023-11-24T08:55:30.142Z,6.00
2023-11-24T08:56:31.869Z,6.00
2023-11-24T08:57:34.352Z,6.00
2023-11-24T08:58:38.273Z,6.10
2023-11-24T08:59:41.221Z,6.10
2023-11-24T09:00:43.027Z,6.10
2023-11-24T09:01:45.135Z,6.10
2023-11-24T09:02:47.886Z,6.10
2023-11-24T09:03:49.966Z,6.00
2023-11-24T09:04:52.086Z,6.00
2023-11-24T09:05:54.125Z,6.00
2023-11-24T09:06:55.796Z,5.90
2023-11-24T09:07:57.455Z,6.00
2023-11-24T09:09:02.332Z,6.00
2023-11-24T09:10:04.612Z,6.00
2023-11-24T09:11:08.211Z,5.90
2023-11-24T09:12:10.078Z,5.80
2023-11-24T09:13:15.159Z,5.60
2023-11-24T09:14:17.360Z,5.20
2023-11-24T09:15:19.380Z,5.00
2023-11-24T09:16:21.695Z,4.80
2023-11-24T09:17:24.100Z,4.60
2023-11-24T09:18:25.839Z,4.40
2023-11-24T09:19:27.575Z,4.40
2023-11-24T09:20:29.686Z,4.30
2023-11-24T09:21:35.683Z,4.30
2023-11-24T09:22:37.579Z,4.30
2023-11-24T09:23:40.203Z,4.30
2023-11-24T09:24:41.865Z,4.30
2023-11-24T09:25:43.550Z,4.20
2023-11-24T09:26:45.503Z,4.20
2023-11-24T09:27:47.172Z,4.20
2023-11-24T09:28:48.819Z,4.20
2023-11-24T09:29:50.464Z,4.20
2023-11-24T09:30:52.180Z,4.20
2023-11-24T09:31:54.042Z,4.20
2023-11-24T09:32:55.830Z,4.20
2023-11-24T09:33:57.661Z,4.30
2023-11-24T09:34:59.404Z,4.30
2023-11-24T09:36:01.421Z,4.40
2023-11-24T09:37:03.552Z,4.40
2023-11-24T09:38:05.829Z,4.40
2023-11-24T09:39:07.463Z,4.50
2023-11-24T09:40:15.085Z,4.50
2023-11-24T09:41:17.049Z,4.60
2023-11-24T09:42:20.366Z,4.60
2023-11-24T09:43:23.858Z,4.70
2023-11-24T09:44:26.762Z,4.80
2023-11-24T09:45:29.524Z,4.90
2023-11-24T09:46:39.550Z,4.90
2023-11-24T09:47:53.751Z,4.80
2023-11-24T09:48:56.704Z,5.00
2023-11-24T09:50:00.520Z,5.20
2023-11-24T09:51:10.002Z,5.30
2023-11-24T09:52:12.800Z,5.40
2023-11-24T09:53:18.928Z,5.40
2023-11-24T09:54:22.655Z,5.50
2023-11-24T09:55:27.425Z,5.50
2023-11-24T09:56:29.971Z,5.50
2023-11-24T09:57:31.615Z,5.50
2023-11-24T09:58:33.655Z,5.50
2023-11-24T09:59:35.328Z,5.50
2023-11-24T10:00:37.271Z,5.50
2023-11-24T10:01:39.275Z,5.50
2023-11-24T10:02:42.040Z,5.50
2023-11-24T10:03:48.199Z,5.50
2023-11-24T10:04:50.339Z,5.50
2023-11-24T10:05:52.501Z,5.50
2023-11-24T10:06:55.328Z,5.50
2023-11-24T10:07:58.220Z,5.50
2023-11-24T10:09:00.061Z,5.80
2023-11-24T10:10:03.989Z,6.00
2023-11-24T10:11:13.792Z,6.60
2023-11-24T10:12:17.074Z,7.60
2023-11-24T10:13:18.751Z,8.50
2023-11-24T10:14:23.232Z,9.40
2023-11-24T10:15:26.078Z,10.00
2023-11-24T10:16:28.617Z,10.20
2023-11-24T10:17:34.322Z,10.20
2023-11-24T10:18:36.158Z,10.10
2023-11-24T10:19:39.014Z,10.00
2023-11-24T10:20:40.666Z,10.00
2023-11-24T10:21:46.552Z,9.90
2023-11-24T10:22:50.523Z,9.70
2023-11-24T10:23:52.598Z,9.40
2023-11-24T10:24:58.219Z,9.10
2023-11-24T10:26:00.507Z,9.00
2023-11-24T10:27:24.787Z,8.70
2023-11-24T10:28:27.132Z,8.70
2023-11-24T10:29:31.941Z,8.90
2023-11-24T10:30:35.114Z,9.00
2023-11-24T10:31:37.211Z,9.20
2023-11-24T10:32:40.623Z,9.20
2023-11-24T10:33:43.176Z,9.30
2023-11-24T10:34:45.995Z,9.20
2023-11-24T10:35:48.509Z,9.10
2023-11-24T10:36:50.465Z,9.10
2023-11-24T10:37:52.556Z,9.00
2023-11-24T10:39:04.273Z,9.10
2023-11-24T10:40:11.886Z,9.10
2023-11-24T10:41:19.923Z,9.30
2023-11-24T10:42:25.770Z,9.70
2023-11-24T10:43:35.373Z,9.90
2023-11-24T10:44:44.714Z,10.10
2023-11-24T10:45:51.917Z,10.00
2023-11-24T10:46:57.606Z,9.80
2023-11-24T10:48:08.806Z,9.80
2023-11-24T10:49:18.191Z,10.10
2023-11-24T10:50:25.472Z,10.20
2023-11-24T10:51:47.179Z,10.20
2023-11-24T10:53:07.840Z,9.90
2023-11-24T10:54:17.146Z,9.50
2023-11-24T10:55:18.962Z,9.20
2023-11-24T10:56:21.534Z,8.50
2023-11-24T10:57:24.469Z,8.20
2023-11-24T10:58:27.650Z,8.00
2023-11-24T10:59:31.097Z,7.90
2023-11-24T11:00:32.919Z,7.90
2023-11-24T11:01:34.854Z,8.00
2023-11-24T11:02:41.781Z,8.10
2023-11-24T11:03:44.779Z,8.20
2023-11-24T11:05:01.889Z,8.20
2023-11-24T11:06:07.129Z,8.10
2023-11-24T11:07:53.881Z,7.90
2023-11-24T11:09:12.325Z,7.90
2023-11-24T11:10:15.152Z,7.70
2023-11-24T11:11:37.299Z,7.70
2023-11-24T11:12:42.198Z,7.60
2023-11-24T11:13:44.995Z,7.40
2023-11-24T11:14:47.920Z,7.20
2023-11-24T11:15:52.088Z,7.10
2023-11-24T11:16:54.168Z,7.00
2023-11-24T11:18:17.690Z,6.90
2023-11-24T11:19:34.918Z,6.80
2023-11-24T11:20:41.532Z,6.70
2023-11-24T11:21:43.220Z,6.70
2023-11-24T11:22:48.012Z,6.70
2023-11-24T11:23:58.860Z,6.60
2023-11-24T11:25:28.142Z,6.60
2023-11-24T11:26:47.198Z,6.60
2023-11-24T11:27:48.957Z,6.50
2023-11-24T11:28:58.520Z,6.60
2023-11-24T11:30:00.358Z,6.60
2023-11-24T11:31:23.870Z,6.60
2023-11-24T11:32:27.073Z,6.60
2023-11-24T11:33:30.244Z,6.70
2023-11-24T11:34:32.851Z,6.70
2023-11-24T11:35:34.696Z,6.80
2023-11-24T11:36:36.912Z,6.90
2023-11-24T11:37:38.706Z,7.00
2023-11-24T11:38:44.484Z,7.10
2023-11-24T11:39:55.181Z,7.20
2023-11-24T11:40:58.758Z,7.30
2023-11-24T11:42:00.815Z,7.40
2023-11-24T11:43:10.294Z,7.60
2023-11-24T11:44:27.561Z,7.70
2023-11-24T11:45:32.509Z,7.70
2023-11-24T11:47:21.417Z,7.70
2023-11-24T11:48:23.247Z,7.70
2023-11-24T11:49:25.373Z,7.60
2023-11-24T11:50:27.220Z,7.80
2023-11-24T11:51:29.651Z,8.00
2023-11-24T11:52:36.446Z,8.00
2023-11-24T11:53:40.030Z,7.90
2023-11-24T11:54:41.938Z,7.90
2023-11-24T11:55:43.943Z,7.90
2023-11-24T11:56:45.588Z,7.80
2023-11-24T11:57:58.102Z,7.70
2023-11-24T11:59:02.161Z,7.50
2023-11-24T12:00:07.709Z,7.50
2023-11-24T12:01:10.213Z,7.40
2023-11-24T12:02:19.237Z,7.30
2023-11-24T12:03:24.076Z,7.20
2023-11-24T12:04:31.636Z,7.20
2023-11-24T12:05:34.061Z,7.30
2023-11-24T12:06:35.780Z,7.60
2023-11-24T12:07:40.493Z,7.70
2023-11-24T12:08:45.236Z,7.70
2023-11-24T12:09:48.377Z,7.60
2023-11-24T12:10:50.608Z,7.60
2023-11-24T12:11:52.418Z,7.60
2023-11-24T12:12:54.208Z,7.40
2023-11-24T12:13:56.962Z,7.50
2023-11-24T12:14:58.740Z,7.40
2023-11-24T12:16:01.225Z,7.30
2023-11-24T12:17:04.449Z,7.40
2023-11-24T12:18:07.974Z,7.30
2023-11-24T12:19:11.243Z,7.60
2023-11-24T12:20:16.213Z,7.70
2023-11-24T12:21:18.151Z,7.80
2023-11-24T12:22:20.285Z,7.80
2023-11-24T12:23:23.219Z,7.90
2023-11-24T12:24:27.654Z,7.60
2023-11-24T12:25:29.443Z,7.50
2023-11-24T12:26:32.044Z,7.40
2023-11-24T12:27:34.903Z,7.20
2023-11-24T12:28:41.838Z,7.00
2023-11-24T12:29:46.293Z,7.00
2023-11-24T12:30:48.987Z,6.90
2023-11-24T12:31:51.582Z,6.90
2023-11-24T12:32:53.439Z,6.90
2023-11-24T12:33:56.776Z,6.80
2023-11-24T12:35:00.984Z,6.70
2023-11-24T12:36:03.177Z,6.70
2023-11-24T12:37:05.316Z,6.80
2023-11-24T12:38:07.423Z,6.80
2023-11-24T12:39:14.276Z,6.80
2023-11-24T12:40:17.367Z,6.80
2023-11-24T12:41:19.586Z,6.80
2023-11-24T12:42:24.091Z,6.80
2023-11-24T12:43:25.833Z,6.80
2023-11-24T12:44:30.266Z,6.70
2023-11-24T12:45:32.195Z,6.60
2023-11-24T12:46:34.474Z,6.60
2023-11-24T12:48:42.339Z,6.60
2023-11-24T12:50:13.976Z,6.50
2023-11-24T12:51:16.578Z,6.40
2023-11-24T12:52:18.773Z,6.40
2023-11-24T12:53:21.292Z,6.50
2023-11-24T12:54:25.147Z,6.40
2023-11-24T12:55:26.852Z,6.30
2023-11-24T12:56:29.313Z,6.30
2023-11-24T12:57:31.031Z,6.40
2023-11-24T12:58:32.852Z,6.30
2023-11-24T12:59:34.498Z,6.30
2023-11-24T13:00:37.979Z,6.30
2023-11-24T13:01:39.905Z,6.20
2023-11-24T13:02:45.594Z,6.20
2023-11-24T13:03:48.983Z,6.30
2023-11-24T13:04:50.949Z,6.30
2023-11-24T13:05:52.642Z,6.40
2023-11-24T13:06:54.293Z,6.40
2023-11-24T13:07:58.976Z,6.40
2023-11-24T13:09:00.989Z,6.30
2023-11-24T13:10:08.039Z,6.30
2023-11-24T13:11:09.803Z,6.30
2023-11-24T13:12:18.154Z,6.20
2023-11-24T13:13:21.735Z,6.20
2023-11-24T13:14:23.980Z,6.20
2023-11-24T13:15:26.531Z,6.20
2023-11-24T13:16:28.324Z,6.10
2023-11-24T13:17:30.011Z,6.20
2023-11-24T13:18:31.687Z,6.10
2023-11-24T13:19:35.561Z,6.30
2023-11-24T13:20:38.892Z,6.30
2023-11-24T13:21:40.655Z,6.40
2023-11-24T13:22:43.453Z,6.40
2023-11-24T13:23:45.229Z,6.50
2023-11-24T13:24:49.785Z,6.50
2023-11-24T13:25:51.657Z,6.40
2023-11-24T13:26:54.438Z,6.30
2023-11-24T13:27:56.368Z,6.30
2023-11-24T13:28:58.191Z,6.30
2023-11-24T13:30:00.305Z,6.30
2023-11-24T13:31:02.127Z,6.30
2023-11-24T13:32:08.723Z,6.30
2023-11-24T13:33:10.414Z,6.20
2023-11-24T13:34:17.925Z,6.20
2023-11-24T13:35:21.239Z,6.30
2023-11-24T13:36:23.464Z,6.30
2023-11-24T13:37:25.381Z,6.40
2023-11-24T13:38:27.032Z,6.20
2023-11-24T13:39:30.581Z,6.10
2023-11-24T13:40:32.751Z,6.10
2023-11-24T13:41:34.469Z,6.20
2023-11-24T13:42:36.174Z,6.20
2023-11-24T13:43:37.819Z,6.20
2023-11-24T13:44:41.493Z,6.20
2023-11-24T13:45:43.307Z,6.20
2023-11-24T13:46:45.491Z,6.20
2023-11-24T13:47:47.288Z,6.20
2023-11-24T13:48:49.117Z,6.20
2023-11-24T13:49:50.977Z,6.10
2023-11-24T13:50:54.276Z,6.10
2023-11-24T13:51:55.998Z,6.00
2023-11-24T13:52:58.193Z,6.00
2023-11-24T13:54:04.844Z,6.00
2023-11-24T13:55:07.876Z,6.00
2023-11-24T13:56:09.763Z,6.00
2023-11-24T13:57:12.560Z,5.90
2023-11-24T13:58:14.371Z,5.90
2023-11-24T13:59:16.302Z,5.90
2023-11-24T14:00:19.021Z,5.90
2023-11-24T14:01:20.800Z,5.80
2023-11-24T14:02:23.208Z,5.80
2023-11-24T14:03:25.121Z,5.80
2023-11-24T14:04:27.574Z,5.80
2023-11-24T14:05:29.276Z,5.80
2023-11-24T14:06:32.123Z,5.80